sensor_id;sensor_type;location;lat;lon;timestamp;pressure;altitude;pressure_sealevel;temperature;humidity
70445;BME280;57902;49.638;11.070;2024-02-26T00:00:15;96604.06;;;5.35;84.87
70445;BME280;57902;49.638;11.070;2024-02-26T00:02:42;96602.50;;;5.31;84.79
70445;BME280;57902;49.638;11.070;2024-02-26T00:05:09;96598.22;;;5.31;84.93
70445;BME280;57902;49.638;11.070;2024-02-26T00:07:35;96595.16;;;5.21;85.95
70445;BME280;57902;49.638;11.070;2024-02-26T00:10:02;96589.38;;;5.40;84.28
70445;BME280;57902;49.638;11.070;2024-02-26T00:12:29;96592.34;;;5.29;85.27
70445;BME280;57902;49.638;11.070;2024-02-26T00:14:55;96590.94;;;5.20;86.27
70445;BME280;57902;49.638;11.070;2024-02-26T00:17:24;96587.69;;;5.15;86.76
70445;BME280;57902;49.638;11.070;2024-02-26T00:19:51;96587.81;;;5.12;87.31
70445;BME280;57902;49.638;11.070;2024-02-26T00:22:17;96583.16;;;5.23;86.34
70445;BME280;57902;49.638;11.070;2024-02-26T00:24:44;96584.28;;;5.16;87.17
70445;BME280;57902;49.638;11.070;2024-02-26T00:27:10;96584.84;;;5.24;86.61
70445;BME280;57902;49.638;11.070;2024-02-26T00:29:37;96585.78;;;5.22;87.44
70445;BME280;57902;49.638;11.070;2024-02-26T00:32:04;96580.78;;;5.19;88.27
70445;BME280;57902;49.638;11.070;2024-02-26T00:34:30;96580.66;;;5.22;88.09
70445;BME280;57902;49.638;11.070;2024-02-26T00:36:57;96578.81;;;5.25;88.63
70445;BME280;57902;49.638;11.070;2024-02-26T00:39:24;96572.66;;;5.31;88.68
70445;BME280;57902;49.638;11.070;2024-02-26T00:41:50;96573.47;;;5.33;88.90
70445;BME280;57902;49.638;11.070;2024-02-26T00:44:18;96581.25;;;5.30;89.48
70445;BME280;57902;49.638;11.070;2024-02-26T00:46:44;96567.72;;;5.26;90.29
70445;BME280;57902;49.638;11.070;2024-02-26T00:49:11;96564.47;;;5.23;90.88
70445;BME280;57902;49.638;11.070;2024-02-26T00:51:38;96563.56;;;5.24;91.35
70445;BME280;57902;49.638;11.070;2024-02-26T00:54:04;96557.44;;;5.28;91.38
70445;BME280;57902;49.638;11.070;2024-02-26T00:56:31;96560.34;;;5.19;92.12
70445;BME280;57902;49.638;11.070;2024-02-26T00:58:58;96569.41;;;5.28;91.39
70445;BME280;57902;49.638;11.070;2024-02-26T01:01:24;96560.22;;;5.22;92.43
70445;BME280;57902;49.638;11.070;2024-02-26T01:03:51;96566.78;;;5.29;91.85
70445;BME280;57902;49.638;11.070;2024-02-26T01:06:17;96564.50;;;5.21;92.77
70445;BME280;57902;49.638;11.070;2024-02-26T01:08:44;96564.81;;;5.12;94.02
70445;BME280;57902;49.638;11.070;2024-02-26T01:11:11;96565.34;;;5.22;93.06
70445;BME280;57902;49.638;11.070;2024-02-26T01:13:37;96561.66;;;5.05;94.51
70445;BME280;57902;49.638;11.070;2024-02-26T01:16:04;96562.53;;;5.04;95.22
70445;BME280;57902;49.638;11.070;2024-02-26T01:18:30;96560.75;;;5.06;94.64
70445;BME280;57902;49.638;11.070;2024-02-26T01:20:57;96557.00;;;5.17;93.53
70445;BME280;57902;49.638;11.070;2024-02-26T01:23:24;96552.22;;;5.07;94.10
70445;BME280;57902;49.638;11.070;2024-02-26T01:25:50;96553.94;;;5.07;94.29
70445;BME280;57902;49.638;11.070;2024-02-26T01:28:17;96550.59;;;5.05;94.01
70445;BME280;57902;49.638;11.070;2024-02-26T01:30:44;96554.13;;;5.02;94.13
70445;BME280;57902;49.638;11.070;2024-02-26T01:33:11;96555.56;;;5.10;93.18
70445;BME280;57902;49.638;11.070;2024-02-26T01:35:38;96555.75;;;5.03;93.36
70445;BME280;57902;49.638;11.070;2024-02-26T01:38:04;96559.22;;;5.02;93.47
70445;BME280;57902;49.638;11.070;2024-02-26T01:40:31;96562.50;;;5.06;93.25
70445;BME280;57902;49.638;11.070;2024-02-26T01:42:59;96562.31;;;5.11;92.48
70445;BME280;57902;49.638;11.070;2024-02-26T01:45:25;96558.84;;;5.13;91.99
70445;BME280;57902;49.638;11.070;2024-02-26T01:47:52;96559.28;;;5.24;90.91
70445;BME280;57902;49.638;11.070;2024-02-26T01:50:20;96554.91;;;5.28;90.32
70445;BME280;57902;49.638;11.070;2024-02-26T01:52:51;96553.06;;;5.08;91.88
70445;BME280;57902;49.638;11.070;2024-02-26T01:55:19;96551.69;;;5.23;90.75
70445;BME280;57902;49.638;11.070;2024-02-26T01:57:48;96550.47;;;5.33;89.58
70445;BME280;57902;49.638;11.070;2024-02-26T02:00:16;96551.88;;;5.17;90.92
70445;BME280;57902;49.638;11.070;2024-02-26T02:02:43;96547.75;;;5.14;90.67
70445;BME280;57902;49.638;11.070;2024-02-26T02:05:15;96540.72;;;5.19;90.56
70445;BME280;57902;49.638;11.070;2024-02-26T02:07:43;96549.78;;;5.28;89.60
70445;BME280;57902;49.638;11.070;2024-02-26T02:10:10;96551.75;;;5.21;90.29
70445;BME280;57902;49.638;11.070;2024-02-26T02:12:36;96553.25;;;5.27;89.28
70445;BME280;57902;49.638;11.070;2024-02-26T02:15:06;96548.97;;;5.28;89.38
70445;BME280;57902;49.638;11.070;2024-02-26T02:17:34;96552.97;;;5.11;90.93
70445;BME280;57902;49.638;11.070;2024-02-26T02:20:00;96553.94;;;5.31;88.93
70445;BME280;57902;49.638;11.070;2024-02-26T02:22:27;96558.19;;;5.32;88.45
70445;BME280;57902;49.638;11.070;2024-02-26T02:24:54;96551.34;;;5.32;88.31
70445;BME280;57902;49.638;11.070;2024-02-26T02:27:21;96557.84;;;5.17;89.27
70445;BME280;57902;49.638;11.070;2024-02-26T02:29:48;96561.22;;;5.18;89.67
70445;BME280;57902;49.638;11.070;2024-02-26T02:32:15;96558.00;;;5.13;90.21
70445;BME280;57902;49.638;11.070;2024-02-26T02:34:44;96565.22;;;5.25;89.07
70445;BME280;57902;49.638;11.070;2024-02-26T02:37:11;96562.66;;;5.25;88.75
70445;BME280;57902;49.638;11.070;2024-02-26T02:39:37;96558.19;;;5.08;90.15
70445;BME280;57902;49.638;11.070;2024-02-26T02:42:04;96570.44;;;5.22;88.89
70445;BME280;57902;49.638;11.070;2024-02-26T02:44:31;96565.78;;;5.10;89.52
70445;BME280;57902;49.638;11.070;2024-02-26T02:46:57;96560.47;;;5.16;89.07
70445;BME280;57902;49.638;11.070;2024-02-26T02:49:24;96577.16;;;5.01;90.25
70445;BME280;57902;49.638;11.070;2024-02-26T02:51:51;96572.88;;;5.01;89.44
70445;BME280;57902;49.638;11.070;2024-02-26T02:54:17;96568.59;;;5.25;88.08
70445;BME280;57902;49.638;11.070;2024-02-26T02:56:44;96565.00;;;5.31;87.20
70445;BME280;57902;49.638;11.070;2024-02-26T02:59:10;96568.66;;;5.24;87.66
70445;BME280;57902;49.638;11.070;2024-02-26T03:01:37;96566.91;;;5.26;87.38
70445;BME280;57902;49.638;11.070;2024-02-26T03:04:03;96565.44;;;5.19;87.77
70445;BME280;57902;49.638;11.070;2024-02-26T03:06:30;96560.28;;;5.20;87.76
70445;BME280;57902;49.638;11.070;2024-02-26T03:08:57;96560.56;;;5.13;88.45
70445;BME280;57902;49.638;11.070;2024-02-26T03:11:23;96570.66;;;5.16;87.71
70445;BME280;57902;49.638;11.070;2024-02-26T03:13:50;96564.47;;;5.23;87.22
70445;BME280;57902;49.638;11.070;2024-02-26T03:16:17;96567.19;;;5.18;87.52
70445;BME280;57902;49.638;11.070;2024-02-26T03:18:44;96555.41;;;5.14;87.72
70445;BME280;57902;49.638;11.070;2024-02-26T03:21:10;96563.31;;;5.06;88.39
70445;BME280;57902;49.638;11.070;2024-02-26T03:23:37;96562.53;;;5.04;89.25
70445;BME280;57902;49.638;11.070;2024-02-26T03:26:04;96561.91;;;4.99;89.32
70445;BME280;57902;49.638;11.070;2024-02-26T03:28:31;96555.97;;;4.97;89.69
70445;BME280;57902;49.638;11.070;2024-02-26T03:31:00;96554.13;;;5.02;89.40
70445;BME280;57902;49.638;11.070;2024-02-26T03:33:27;96550.53;;;5.06;88.91
70445;BME280;57902;49.638;11.070;2024-02-26T03:35:54;96538.91;;;4.99;89.38
70445;BME280;57902;49.638;11.070;2024-02-26T03:38:20;96542.22;;;5.01;89.38
70445;BME280;57902;49.638;11.070;2024-02-26T03:40:47;96541.50;;;4.98;89.86
70445;BME280;57902;49.638;11.070;2024-02-26T03:43:14;96545.53;;;5.03;89.11
70445;BME280;57902;49.638;11.070;2024-02-26T03:45:40;96550.66;;;5.03;88.72
70445;BME280;57902;49.638;11.070;2024-02-26T03:48:07;96552.91;;;5.13;87.89
70445;BME280;57902;49.638;11.070;2024-02-26T03:50:33;96549.56;;;5.11;87.93
70445;BME280;57902;49.638;11.070;2024-02-26T03:53:01;96552.22;;;5.07;87.77
70445;BME280;57902;49.638;11.070;2024-02-26T03:55:27;96555.88;;;5.00;88.22
70445;BME280;57902;49.638;11.070;2024-02-26T03:57:54;96553.44;;;4.97;88.06
70445;BME280;57902;49.638;11.070;2024-02-26T04:00:20;96555.09;;;4.98;88.17
70445;BME280;57902;49.638;11.070;2024-02-26T04:02:48;96557.16;;;5.12;86.60
70445;BME280;57902;49.638;11.070;2024-02-26T04:05:15;96548.03;;;5.05;86.76
70445;BME280;57902;49.638;11.070;2024-02-26T04:07:42;96553.53;;;4.94;87.67
70445;BME280;57902;49.638;11.070;2024-02-26T04:10:12;96549.13;;;4.99;86.86
70445;BME280;57902;49.638;11.070;2024-02-26T04:12:39;96554.03;;;4.80;88.91
70445;BME280;57902;49.638;11.070;2024-02-26T04:15:10;96548.47;;;4.69;89.26
70445;BME280;57902;49.638;11.070;2024-02-26T04:17:37;96551.09;;;4.91;87.25
70445;BME280;57902;49.638;11.070;2024-02-26T04:20:04;96558.19;;;4.83;87.11
70445;BME280;57902;49.638;11.070;2024-02-26T04:22:32;96544.66;;;4.81;86.65
70445;BME280;57902;49.638;11.070;2024-02-26T04:24:58;96551.47;;;4.80;86.59
70445;BME280;57902;49.638;11.070;2024-02-26T04:27:25;96563.72;;;4.70;88.00
70445;BME280;57902;49.638;11.070;2024-02-26T04:29:52;96564.47;;;4.72;87.06
70445;BME280;57902;49.638;11.070;2024-02-26T04:32:18;96572.03;;;4.76;86.94
70445;BME280;57902;49.638;11.070;2024-02-26T04:34:45;96573.19;;;4.67;87.58
70445;BME280;57902;49.638;11.070;2024-02-26T04:37:11;96574.81;;;4.69;87.11
70445;BME280;57902;49.638;11.070;2024-02-26T04:39:38;96577.88;;;4.79;87.20
70445;BME280;57902;49.638;11.070;2024-02-26T04:42:05;96577.25;;;4.72;86.88
70445;BME280;57902;49.638;11.070;2024-02-26T04:44:31;96566.22;;;4.72;87.08
70445;BME280;57902;49.638;11.070;2024-02-26T04:46:58;96571.97;;;4.79;86.60
70445;BME280;57902;49.638;11.070;2024-02-26T04:49:24;96572.25;;;4.69;87.20
70445;BME280;57902;49.638;11.070;2024-02-26T04:51:51;96566.94;;;4.76;86.54
70445;BME280;57902;49.638;11.070;2024-02-26T04:54:17;96573.72;;;4.77;86.98
70445;BME280;57902;49.638;11.070;2024-02-26T04:56:44;96580.84;;;4.67;87.88
70445;BME280;57902;49.638;11.070;2024-02-26T04:59:11;96580.72;;;4.71;87.28
70445;BME280;57902;49.638;11.070;2024-02-26T05:01:37;96572.03;;;4.76;86.85
70445;BME280;57902;49.638;11.070;2024-02-26T05:04:04;96577.13;;;4.76;87.23
70445;BME280;57902;49.638;11.070;2024-02-26T05:06:31;96582.00;;;4.83;86.40
70445;BME280;57902;49.638;11.070;2024-02-26T05:08:58;96590.28;;;4.90;86.14
70445;BME280;57902;49.638;11.070;2024-02-26T05:11:24;96583.09;;;4.76;87.00
70445;BME280;57902;49.638;11.070;2024-02-26T05:13:51;96587.16;;;4.82;86.39
70445;BME280;57902;49.638;11.070;2024-02-26T05:16:18;96581.31;;;4.78;87.04
70445;BME280;57902;49.638;11.070;2024-02-26T05:18:47;96580.06;;;4.90;85.52
70445;BME280;57902;49.638;11.070;2024-02-26T05:21:13;96578.19;;;4.95;85.12
70445;BME280;57902;49.638;11.070;2024-02-26T05:23:40;96577.50;;;4.90;85.08
70445;BME280;57902;49.638;11.070;2024-02-26T05:26:06;96578.09;;;4.98;84.51
70445;BME280;57902;49.638;11.070;2024-02-26T05:28:33;96569.34;;;5.05;84.05
70445;BME280;57902;49.638;11.070;2024-02-26T05:31:00;96581.03;;;4.86;85.64
70445;BME280;57902;49.638;11.070;2024-02-26T05:33:26;96573.38;;;4.86;85.03
70445;BME280;57902;49.638;11.070;2024-02-26T05:35:53;96569.13;;;4.86;84.98
70445;BME280;57902;49.638;11.070;2024-02-26T05:38:19;96571.38;;;4.96;84.65
70445;BME280;57902;49.638;11.070;2024-02-26T05:40:46;96559.53;;;4.93;85.03
70445;BME280;57902;49.638;11.070;2024-02-26T05:43:13;96572.94;;;5.00;83.46
70445;BME280;57902;49.638;11.070;2024-02-26T05:45:41;96583.97;;;5.00;84.10
70445;BME280;57902;49.638;11.070;2024-02-26T05:48:08;96585.00;;;4.95;84.63
70445;BME280;57902;49.638;11.070;2024-02-26T05:50:34;96589.34;;;4.93;84.35
70445;BME280;57902;49.638;11.070;2024-02-26T05:53:01;96589.97;;;4.99;83.42
70445;BME280;57902;49.638;11.070;2024-02-26T05:55:27;96591.63;;;5.00;83.73
70445;BME280;57902;49.638;11.070;2024-02-26T05:57:54;96589.97;;;4.99;83.41
70445;BME280;57902;49.638;11.070;2024-02-26T06:00:21;96597.69;;;4.98;83.88
70445;BME280;57902;49.638;11.070;2024-02-26T06:02:47;96601.19;;;4.95;83.73
70445;BME280;57902;49.638;11.070;2024-02-26T06:05:14;96608.84;;;4.95;83.38
70445;BME280;57902;49.638;11.070;2024-02-26T06:07:40;96608.84;;;4.95;83.63
70445;BME280;57902;49.638;11.070;2024-02-26T06:10:07;96608.84;;;4.95;84.16
70445;BME280;57902;49.638;11.070;2024-02-26T06:12:37;96620.81;;;4.93;84.27
70445;BME280;57902;49.638;11.070;2024-02-26T06:15:04;96610.59;;;4.93;84.22
70445;BME280;57902;49.638;11.070;2024-02-26T06:17:31;96613.72;;;5.01;83.22
70445;BME280;57902;49.638;11.070;2024-02-26T06:19:57;96617.75;;;5.08;82.48
70445;BME280;57902;49.638;11.070;2024-02-26T06:22:26;96620.53;;;5.02;83.75
70445;BME280;57902;49.638;11.070;2024-02-26T06:24:53;96631.78;;;4.97;84.41
70445;BME280;57902;49.638;11.070;2024-02-26T06:27:20;96627.44;;;4.99;84.10
70445;BME280;57902;49.638;11.070;2024-02-26T06:29:48;96619.88;;;4.96;84.65
70445;BME280;57902;49.638;11.070;2024-02-26T06:32:14;96626.06;;;5.14;84.41
70445;BME280;57902;49.638;11.070;2024-02-26T06:34:41;96628.72;;;5.11;83.98
70445;BME280;57902;49.638;11.070;2024-02-26T06:37:08;96625.41;;;5.08;84.25
70445;BME280;57902;49.638;11.070;2024-02-26T06:39:34;96635.31;;;5.18;84.18
70445;BME280;57902;49.638;11.070;2024-02-26T06:42:01;96633.63;;;5.17;83.61
70445;BME280;57902;49.638;11.070;2024-02-26T06:44:28;96639.91;;;5.08;85.27
70445;BME280;57902;49.638;11.070;2024-02-26T06:47:00;96649.16;;;5.11;84.58
70445;BME280;57902;49.638;11.070;2024-02-26T06:49:28;96649.13;;;5.12;84.73
70445;BME280;57902;49.638;11.070;2024-02-26T06:51:54;96650.94;;;5.08;85.55
70445;BME280;57902;49.638;11.070;2024-02-26T06:54:21;96653.97;;;5.20;84.43
70445;BME280;57902;49.638;11.070;2024-02-26T06:56:48;96655.63;;;5.21;84.45
70445;BME280;57902;49.638;11.070;2024-02-26T06:59:14;96657.09;;;5.28;83.46
70445;BME280;57902;49.638;11.070;2024-02-26T07:01:41;96658.50;;;5.37;82.75
70445;BME280;57902;49.638;11.070;2024-02-26T07:04:08;96656.56;;;5.43;82.53
70445;BME280;57902;49.638;11.070;2024-02-26T07:06:35;96663.34;;;5.19;84.35
70445;BME280;57902;49.638;11.070;2024-02-26T07:09:02;96661.31;;;5.29;82.58
70445;BME280;57902;49.638;11.070;2024-02-26T07:11:28;96673.88;;;5.10;84.34
70445;BME280;57902;49.638;11.070;2024-02-26T07:13:55;96666.81;;;5.18;83.53
70445;BME280;57902;49.638;11.070;2024-02-26T07:16:21;96674.59;;;5.14;84.74
70445;BME280;57902;49.638;11.070;2024-02-26T07:18:48;96674.81;;;5.07;84.39
70445;BME280;57902;49.638;11.070;2024-02-26T07:21:15;96685.63;;;5.16;84.26
70445;BME280;57902;49.638;11.070;2024-02-26T07:23:41;96672.00;;;5.15;84.63
70445;BME280;57902;49.638;11.070;2024-02-26T07:26:08;96684.75;;;5.15;84.11
70445;BME280;57902;49.638;11.070;2024-02-26T07:28:34;96679.41;;;5.23;83.80
70445;BME280;57902;49.638;11.070;2024-02-26T07:31:01;96685.25;;;5.26;82.95
70445;BME280;57902;49.638;11.070;2024-02-26T07:33:28;96687.63;;;5.31;82.63
70445;BME280;57902;49.638;11.070;2024-02-26T07:35:54;96688.69;;;5.25;83.01
70445;BME280;57902;49.638;11.070;2024-02-26T07:38:21;96687.75;;;5.28;82.90
70445;BME280;57902;49.638;11.070;2024-02-26T07:41:07;96690.88;;;5.36;84.16
70445;BME280;57902;49.638;11.070;2024-02-26T07:43:33;96686.50;;;5.40;83.53
70445;BME280;57902;49.638;11.070;2024-02-26T07:46:00;96677.66;;;5.49;81.72
70445;BME280;57902;49.638;11.070;2024-02-26T07:48:26;96680.06;;;5.53;81.44
70445;BME280;57902;49.638;11.070;2024-02-26T07:50:53;96687.22;;;5.43;82.81
70445;BME280;57902;49.638;11.070;2024-02-26T07:53:20;96692.00;;;5.53;82.69
70445;BME280;57902;49.638;11.070;2024-02-26T07:55:46;96700.78;;;5.46;83.50
70445;BME280;57902;49.638;11.070;2024-02-26T07:58:13;96707.88;;;5.63;82.93
70445;BME280;57902;49.638;11.070;2024-02-26T08:00:40;96712.25;;;5.59;81.84
70445;BME280;57902;49.638;11.070;2024-02-26T08:03:07;96724.59;;;5.48;82.40
70445;BME280;57902;49.638;11.070;2024-02-26T08:05:34;96724.16;;;5.60;81.91
70445;BME280;57902;49.638;11.070;2024-02-26T08:08:01;96725.66;;;5.66;81.57
70445;BME280;57902;49.638;11.070;2024-02-26T08:10:27;96723.59;;;6.01;79.67
70445;BME280;57902;49.638;11.070;2024-02-26T08:12:58;96707.41;;;6.00;79.63
70445;BME280;57902;49.638;11.070;2024-02-26T08:15:32;96714.06;;;6.04;79.93
70445;BME280;57902;49.638;11.070;2024-02-26T08:18:00;96714.97;;;6.03;79.35
70445;BME280;57902;49.638;11.070;2024-02-26T08:20:31;96716.72;;;6.25;77.84
70445;BME280;57902;49.638;11.070;2024-02-26T08:22:57;96703.63;;;6.33;76.68
70445;BME280;57902;49.638;11.070;2024-02-26T08:25:24;96710.88;;;5.99;79.11
70445;BME280;57902;49.638;11.070;2024-02-26T08:27:51;96704.00;;;6.23;78.54
70445;BME280;57902;49.638;11.070;2024-02-26T08:30:18;96706.25;;;6.31;79.64
70445;BME280;57902;49.638;11.070;2024-02-26T08:32:45;96716.94;;;6.42;77.62
70445;BME280;57902;49.638;11.070;2024-02-26T08:35:17;96714.00;;;6.29;77.60
70445;BME280;57902;49.638;11.070;2024-02-26T08:37:44;96717.50;;;6.03;79.38
70445;BME280;57902;49.638;11.070;2024-02-26T08:40:12;96722.31;;;6.12;79.13
70445;BME280;57902;49.638;11.070;2024-02-26T08:42:38;96734.94;;;6.17;78.57
70445;BME280;57902;49.638;11.070;2024-02-26T08:45:06;96748.84;;;6.10;78.97
70445;BME280;57902;49.638;11.070;2024-02-26T08:47:33;96741.94;;;6.12;78.86
70445;BME280;57902;49.638;11.070;2024-02-26T08:50:00;96739.53;;;6.31;78.72
70445;BME280;57902;49.638;11.070;2024-02-26T08:52:26;96751.41;;;6.56;77.71
70445;BME280;57902;49.638;11.070;2024-02-26T08:54:53;96750.47;;;6.58;78.87
70445;BME280;57902;49.638;11.070;2024-02-26T08:57:19;96760.63;;;6.60;76.00
70445;BME280;57902;49.638;11.070;2024-02-26T08:59:46;96757.22;;;6.37;77.07
70445;BME280;57902;49.638;11.070;2024-02-26T09:02:12;96749.94;;;6.26;78.07
70445;BME280;57902;49.638;11.070;2024-02-26T09:04:39;96743.88;;;6.29;77.73
70445;BME280;57902;49.638;11.070;2024-02-26T09:07:05;96751.41;;;6.56;76.36
70445;BME280;57902;49.638;11.070;2024-02-26T09:09:32;96749.84;;;6.52;77.14
70445;BME280;57902;49.638;11.070;2024-02-26T09:11:59;96749.50;;;6.61;76.33
70445;BME280;57902;49.638;11.070;2024-02-26T09:14:26;96748.47;;;6.65;78.53
70445;BME280;57902;49.638;11.070;2024-02-26T09:16:54;96749.28;;;6.67;76.47
70445;BME280;57902;49.638;11.070;2024-02-26T09:19:20;96746.88;;;6.85;74.94
70445;BME280;57902;49.638;11.070;2024-02-26T09:21:47;96744.19;;;6.88;74.05
70445;BME280;57902;49.638;11.070;2024-02-26T09:24:13;96746.34;;;6.76;76.34
70445;BME280;57902;49.638;11.070;2024-02-26T09:26:41;96756.00;;;6.92;75.20
70445;BME280;57902;49.638;11.070;2024-02-26T09:29:07;96755.09;;;6.93;75.30
70445;BME280;57902;49.638;11.070;2024-02-26T09:31:34;96751.34;;;7.22;73.62
70445;BME280;57902;49.638;11.070;2024-02-26T09:34:01;96743.72;;;7.21;73.47
70445;BME280;57902;49.638;11.070;2024-02-26T09:36:28;96747.34;;;7.16;73.37
70445;BME280;57902;49.638;11.070;2024-02-26T09:38:55;96750.84;;;7.14;73.76
70445;BME280;57902;49.638;11.070;2024-02-26T09:41:30;96748.34;;;7.12;74.14
70445;BME280;57902;49.638;11.070;2024-02-26T09:43:57;96748.34;;;7.12;74.79
70445;BME280;57902;49.638;11.070;2024-02-26T09:46:26;96750.75;;;7.58;71.10
70445;BME280;57902;49.638;11.070;2024-02-26T09:48:53;96764.50;;;7.56;71.85
70445;BME280;57902;49.638;11.070;2024-02-26T09:51:22;96751.88;;;7.71;69.33
70445;BME280;57902;49.638;11.070;2024-02-26T09:53:52;96750.72;;;7.79;69.84
70445;BME280;57902;49.638;11.070;2024-02-26T09:56:19;96763.06;;;7.89;69.77
70445;BME280;57902;49.638;11.070;2024-02-26T09:58:46;96741.97;;;7.64;71.08
70445;BME280;57902;49.638;11.070;2024-02-26T10:01:18;96735.41;;;7.77;70.69
70445;BME280;57902;49.638;11.070;2024-02-26T10:03:57;96746.13;;;7.85;69.35
70445;BME280;57902;49.638;11.070;2024-02-26T10:06:27;96744.88;;;7.75;69.70
70445;BME280;57902;49.638;11.070;2024-02-26T10:08:56;96744.63;;;7.81;69.82
70445;BME280;57902;49.638;11.070;2024-02-26T10:11:25;96746.94;;;8.06;66.96
70445;BME280;57902;49.638;11.070;2024-02-26T10:13:53;96735.81;;;8.27;66.82
70445;BME280;57902;49.638;11.070;2024-02-26T10:16:20;96734.94;;;8.26;66.87
70445;BME280;57902;49.638;11.070;2024-02-26T10:18:50;96724.97;;;8.39;66.05
70445;BME280;57902;49.638;11.070;2024-02-26T10:21:25;96721.09;;;8.30;66.65
70445;BME280;57902;49.638;11.070;2024-02-26T10:23:52;96719.56;;;8.45;66.28
70445;BME280;57902;49.638;11.070;2024-02-26T10:26:20;96714.28;;;8.48;65.79
70445;BME280;57902;49.638;11.070;2024-02-26T10:28:47;96718.59;;;8.48;66.74
70445;BME280;57902;49.638;11.070;2024-02-26T10:31:19;96722.63;;;8.53;66.45
70445;BME280;57902;49.638;11.070;2024-02-26T10:33:45;96731.31;;;8.87;65.00
70445;BME280;57902;49.638;11.070;2024-02-26T10:36:12;96727.78;;;8.90;65.46
70445;BME280;57902;49.638;11.070;2024-02-26T10:38:39;96726.94;;;9.07;65.58
70445;BME280;57902;49.638;11.070;2024-02-26T10:41:06;96728.78;;;9.40;66.36
70445;BME280;57902;49.638;11.070;2024-02-26T10:43:32;96723.81;;;9.53;62.79
70445;BME280;57902;49.638;11.070;2024-02-26T10:45:59;96725.22;;;9.76;62.67
70445;BME280;57902;49.638;11.070;2024-02-26T10:48:25;96730.09;;;9.98;61.89
70445;BME280;57902;49.638;11.070;2024-02-26T10:50:52;96745.88;;;9.92;61.04
70445;BME280;57902;49.638;11.070;2024-02-26T10:53:22;96752.72;;;10.09;59.12
70445;BME280;57902;49.638;11.070;2024-02-26T10:55:55;96755.47;;;9.55;59.46
70445;BME280;57902;49.638;11.070;2024-02-26T10:58:23;96760.22;;;9.62;60.25
70445;BME280;57902;49.638;11.070;2024-02-26T11:00:52;96762.06;;;9.60;60.38
70445;BME280;57902;49.638;11.070;2024-02-26T11:03:20;96763.19;;;9.55;61.53
70445;BME280;57902;49.638;11.070;2024-02-26T11:05:49;96762.25;;;9.73;61.75
70445;BME280;57902;49.638;11.070;2024-02-26T11:08:18;96773.69;;;9.68;60.83
70445;BME280;57902;49.638;11.070;2024-02-26T11:10:47;96757.25;;;9.70;61.35
70445;BME280;57902;49.638;11.070;2024-02-26T11:13:17;96757.47;;;9.83;59.84
70445;BME280;57902;49.638;11.070;2024-02-26T11:15:48;96752.25;;;9.85;61.07
70445;BME280;57902;49.638;11.070;2024-02-26T11:18:15;96755.97;;;9.79;60.68
70445;BME280;57902;49.638;11.070;2024-02-26T11:20:46;96777.09;;;9.51;62.37
70445;BME280;57902;49.638;11.070;2024-02-26T11:23:12;96764.84;;;9.56;61.71
70445;BME280;57902;49.638;11.070;2024-02-26T11:25:39;96769.13;;;9.73;61.61
70445;BME280;57902;49.638;11.070;2024-02-26T11:28:12;96760.00;;;10.01;61.08
70445;BME280;57902;49.638;11.070;2024-02-26T11:30:42;96756.91;;;10.27;60.06
70445;BME280;57902;49.638;11.070;2024-02-26T11:33:11;96752.00;;;9.89;60.61
70445;BME280;57902;49.638;11.070;2024-02-26T11:35:39;96761.19;;;10.11;60.79
70445;BME280;57902;49.638;11.070;2024-02-26T11:38:06;96756.13;;;10.43;59.08
70445;BME280;57902;49.638;11.070;2024-02-26T11:40:38;96761.59;;;10.68;57.08
70445;BME280;57902;49.638;11.070;2024-02-26T11:43:07;96759.81;;;11.01;56.24
70445;BME280;57902;49.638;11.070;2024-02-26T11:48:22;96756.53;;;10.83;56.96
70445;BME280;57902;49.638;11.070;2024-02-26T11:50:54;96748.16;;;10.63;58.52
70445;BME280;57902;49.638;11.070;2024-02-26T11:53:26;96750.72;;;10.47;59.82
70445;BME280;57902;49.638;11.070;2024-02-26T11:59:09;96756.09;;;10.91;59.23
70445;BME280;57902;49.638;11.070;2024-02-26T12:01:39;96755.13;;;10.61;58.26
70445;BME280;57902;49.638;11.070;2024-02-26T12:04:11;96760.84;;;10.98;56.48
70445;BME280;57902;49.638;11.070;2024-02-26T12:06:42;96764.41;;;11.12;55.65
70445;BME280;57902;49.638;11.070;2024-02-26T12:09:09;96770.22;;;10.99;57.24
70445;BME280;57902;49.638;11.070;2024-02-26T12:11:39;96776.63;;;10.92;56.25
70445;BME280;57902;49.638;11.070;2024-02-26T12:14:08;96769.19;;;11.18;54.35
70445;BME280;57902;49.638;11.070;2024-02-26T12:16:36;96762.84;;;11.40;53.33
70445;BME280;57902;49.638;11.070;2024-02-26T12:19:07;96762.97;;;11.22;54.70
70445;BME280;57902;49.638;11.070;2024-02-26T12:21:36;96765.16;;;10.82;55.89
70445;BME280;57902;49.638;11.070;2024-02-26T12:24:14;96762.09;;;11.07;54.84
70445;BME280;57902;49.638;11.070;2024-02-26T12:26:42;96768.06;;;11.08;54.11
70445;BME280;57902;49.638;11.070;2024-02-26T12:29:08;96764.59;;;11.23;54.69
70445;BME280;57902;49.638;11.070;2024-02-26T12:31:37;96769.22;;;11.63;53.33
70445;BME280;57902;49.638;11.070;2024-02-26T12:34:05;96776.88;;;11.50;53.10
70445;BME280;57902;49.638;11.070;2024-02-26T12:36:34;96774.00;;;11.24;54.09
70445;BME280;57902;49.638;11.070;2024-02-26T12:39:02;96781.13;;;11.05;55.14
70445;BME280;57902;49.638;11.070;2024-02-26T12:41:28;96785.03;;;10.96;56.24
70445;BME280;57902;49.638;11.070;2024-02-26T12:43:57;96784.47;;;11.37;54.02
70445;BME280;57902;49.638;11.070;2024-02-26T12:46:24;96787.38;;;11.61;53.78
70445;BME280;57902;49.638;11.070;2024-02-26T12:48:51;96782.22;;;11.61;53.06
70445;BME280;57902;49.638;11.070;2024-02-26T12:51:18;96782.03;;;11.50;53.70
70445;BME280;57902;49.638;11.070;2024-02-26T12:53:45;96782.03;;;11.50;51.43
70445;BME280;57902;49.638;11.070;2024-02-26T12:56:12;96780.00;;;11.55;50.27
70445;BME280;57902;49.638;11.070;2024-02-26T12:58:39;96778.34;;;11.54;52.21
70445;BME280;57902;49.638;11.070;2024-02-26T13:01:07;96769.41;;;11.60;52.00
70445;BME280;57902;49.638;11.070;2024-02-26T13:03:40;96759.75;;;11.63;52.55
70445;BME280;57902;49.638;11.070;2024-02-26T13:06:08;96763.38;;;11.89;52.24